sensor_id;sensor_type;location;lat;lon;timestamp;P1;durP1;ratioP1;P2;durP2;ratioP2
52488;SDS011;38399;52.236;104.280;2022-08-01T17:40:10;3.75;;;2.65;;
52488;SDS011;38399;52.236;104.280;2022-08-01T17:42:37;3.38;;;1.98;;
52488;SDS011;38399;52.236;104.280;2022-08-01T17:45:08;2.95;;;1.40;;
52488;SDS011;38399;52.236;104.280;2022-08-01T17:47:36;2.58;;;1.50;;
52488;SDS011;38399;52.236;104.280;2022-08-01T17:50:04;2.42;;;1.00;;
52488;SDS011;38399;52.236;104.280;2022-08-01T17:52:33;1.20;;;0.80;;
52488;SDS011;38399;52.236;104.280;2022-08-01T17:55:00;5.28;;;1.63;;
52488;SDS011;38399;52.236;104.280;2022-08-01T17:57:29;2.53;;;1.70;;
52488;SDS011;38399;52.236;104.280;2022-08-01T17:59:55;3.05;;;1.50;;
52488;SDS011;38399;52.236;104.280;2022-08-01T18:02:23;5.13;;;1.85;;
52488;SDS011;38399;52.236;104.280;2022-08-01T18:04:50;4.20;;;2.45;;
52488;SDS011;38399;52.236;104.280;2022-08-01T18:07:17;2.72;;;2.10;;
52488;SDS011;38399;52.236;104.280;2022-08-01T18:09:44;4.50;;;2.33;;
52488;SDS011;38399;52.236;104.280;2022-08-01T18:12:12;3.25;;;2.13;;
52488;SDS011;38399;52.236;104.280;2022-08-01T18:14:39;4.93;;;2.53;;
52488;SDS011;38399;52.236;104.280;2022-08-01T18:17:06;3.80;;;2.63;;
52488;SDS011;38399;52.236;104.280;2022-08-01T18:19:34;3.53;;;2.55;;
52488;SDS011;38399;52.236;104.280;2022-08-01T18:22:01;4.45;;;2.80;;
52488;SDS011;38399;52.236;104.280;2022-08-01T18:26:53;4.28;;;2.88;;
52488;SDS011;38399;52.236;104.280;2022-08-01T18:29:20;3.17;;;2.70;;
52488;SDS011;38399;52.236;104.280;2022-08-01T18:31:46;5.07;;;3.65;;
52488;SDS011;38399;52.236;104.280;2022-08-01T18:34:12;4.78;;;3.75;;
52488;SDS011;38399;52.236;104.280;2022-08-01T18:39:06;6.07;;;3.65;;
52488;SDS011;38399;52.236;104.280;2022-08-01T18:41:34;6.25;;;4.18;;
52488;SDS011;38399;52.236;104.280;2022-08-01T18:44:03;5.15;;;3.72;;
52488;SDS011;38399;52.236;104.280;2022-08-01T18:46:30;6.15;;;4.78;;
52488;SDS011;38399;52.236;104.280;2022-08-01T18:48:57;7.07;;;4.60;;
52488;SDS011;38399;52.236;104.280;2022-08-01T18:51:23;7.13;;;5.15;;
52488;SDS011;38399;52.236;104.280;2022-08-01T18:53:51;7.13;;;5.05;;
52488;SDS011;38399;52.236;104.280;2022-08-01T18:56:20;8.02;;;5.57;;
52488;SDS011;38399;52.236;104.280;2022-08-01T18:58:46;8.07;;;5.72;;
52488;SDS011;38399;52.236;104.280;2022-08-01T19:01:13;8.98;;;6.70;;
52488;SDS011;38399;52.236;104.280;2022-08-01T19:03:39;9.38;;;6.63;;
52488;SDS011;38399;52.236;104.280;2022-08-01T19:06:06;10.27;;;6.75;;
52488;SDS011;38399;52.236;104.280;2022-08-01T19:08:34;11.52;;;7.25;;
52488;SDS011;38399;52.236;104.280;2022-08-01T19:11:03;11.27;;;7.80;;
52488;SDS011;38399;52.236;104.280;2022-08-01T19:13:29;12.07;;;7.53;;
52488;SDS011;38399;52.236;104.280;2022-08-01T19:15:57;14.02;;;7.68;;
52488;SDS011;38399;52.236;104.280;2022-08-01T19:18:24;9.73;;;6.95;;
52488;SDS011;38399;52.236;104.280;2022-08-01T19:20:51;10.98;;;8.00;;
52488;SDS011;38399;52.236;104.280;2022-08-01T19:23:17;13.10;;;8.30;;
52488;SDS011;38399;52.236;104.280;2022-08-01T19:26:02;11.68;;;7.95;;
52488;SDS011;38399;52.236;104.280;2022-08-01T19:28:32;11.77;;;8.13;;
52488;SDS011;38399;52.236;104.280;2022-08-01T19:31:14;11.52;;;8.25;;
52488;SDS011;38399;52.236;104.280;2022-08-01T19:36:08;11.40;;;8.07;;
52488;SDS011;38399;52.236;104.280;2022-08-01T19:38:42;11.98;;;8.13;;
52488;SDS011;38399;52.236;104.280;2022-08-01T19:41:09;13.13;;;8.88;;
52488;SDS011;38399;52.236;104.280;2022-08-01T19:43:38;11.55;;;8.75;;
52488;SDS011;38399;52.236;104.280;2022-08-01T19:46:05;12.52;;;8.65;;
52488;SDS011;38399;52.236;104.280;2022-08-01T19:48:32;14.68;;;9.15;;
52488;SDS011;38399;52.236;104.280;2022-08-01T19:51:00;11.45;;;8.23;;
52488;SDS011;38399;52.236;104.280;2022-08-01T19:53:31;12.63;;;9.35;;
52488;SDS011;38399;52.236;104.280;2022-08-01T19:56:03;14.25;;;8.57;;
52488;SDS011;38399;52.236;104.280;2022-08-01T19:58:36;12.60;;;8.80;;
52488;SDS011;38399;52.236;104.280;2022-08-01T20:01:07;11.02;;;7.72;;
52488;SDS011;38399;52.236;104.280;2022-08-01T20:03:35;11.93;;;8.75;;
52488;SDS011;38399;52.236;104.280;2022-08-01T20:06:02;11.05;;;8.30;;
52488;SDS011;38399;52.236;104.280;2022-08-01T20:08:30;10.95;;;7.88;;
52488;SDS011;38399;52.236;104.280;2022-08-01T20:11:00;12.40;;;8.70;;
52488;SDS011;38399;52.236;104.280;2022-08-01T20:13:29;13.55;;;8.30;;
52488;SDS011;38399;52.236;104.280;2022-08-01T20:15:55;10.90;;;7.72;;
52488;SDS011;38399;52.236;104.280;2022-08-01T20:18:23;10.70;;;8.00;;
52488;SDS011;38399;52.236;104.280;2022-08-01T20:20:50;11.35;;;7.32;;
52488;SDS011;38399;52.236;104.280;2022-08-01T20:23:19;12.00;;;8.27;;
52488;SDS011;38399;52.236;104.280;2022-08-01T20:25:48;10.93;;;7.68;;
52488;SDS011;38399;52.236;104.280;2022-08-01T20:28:19;12.68;;;8.55;;
52488;SDS011;38399;52.236;104.280;2022-08-01T20:30:50;9.93;;;7.35;;
52488;SDS011;38399;52.236;104.280;2022-08-01T20:33:20;9.93;;;7.38;;
52488;SDS011;38399;52.236;104.280;2022-08-01T20:35:47;13.85;;;7.97;;
52488;SDS011;38399;52.236;104.280;2022-08-01T20:38:16;11.75;;;7.68;;
52488;SDS011;38399;52.236;104.280;2022-08-01T20:40:45;12.13;;;8.10;;
52488;SDS011;38399;52.236;104.280;2022-08-01T20:43:16;10.50;;;7.43;;
52488;SDS011;38399;52.236;104.280;2022-08-01T20:45:44;10.27;;;7.20;;
52488;SDS011;38399;52.236;104.280;2022-08-01T20:48:13;8.45;;;7.00;;
52488;SDS011;38399;52.236;104.280;2022-08-01T20:50:42;12.10;;;7.93;;
52488;SDS011;38399;52.236;104.280;2022-08-01T20:53:29;10.30;;;7.40;;
52488;SDS011;38399;52.236;104.280;2022-08-01T20:56:03;9.48;;;7.20;;
52488;SDS011;38399;52.236;104.280;2022-08-01T21:01:48;11.43;;;7.03;;
52488;SDS011;38399;52.236;104.280;2022-08-01T21:09:52;9.35;;;6.70;;
52488;SDS011;38399;52.236;104.280;2022-08-01T21:12:59;8.93;;;6.85;;
52488;SDS011;38399;52.236;104.280;2022-08-01T21:18:18;9.75;;;6.68;;
52488;SDS011;38399;52.236;104.280;2022-08-01T21:21:06;9.63;;;6.55;;
52488;SDS011;38399;52.236;104.280;2022-08-01T21:23:38;10.07;;;6.50;;
52488;SDS011;38399;52.236;104.280;2022-08-01T21:26:12;8.77;;;6.07;;
52488;SDS011;38399;52.236;104.280;2022-08-01T21:28:39;9.30;;;6.68;;
52488;SDS011;38399;52.236;104.280;2022-08-01T21:31:07;10.02;;;6.55;;
52488;SDS011;38399;52.236;104.280;2022-08-01T21:33:34;10.27;;;7.25;;
52488;SDS011;38399;52.236;104.280;2022-08-01T21:36:04;9.82;;;6.38;;
52488;SDS011;38399;52.236;104.280;2022-08-01T21:38:31;9.25;;;6.57;;
52488;SDS011;38399;52.236;104.280;2022-08-01T21:41:01;9.35;;;6.90;;
52488;SDS011;38399;52.236;104.280;2022-08-01T21:43:30;8.63;;;7.10;;
52488;SDS011;38399;52.236;104.280;2022-08-01T21:45:57;10.73;;;6.45;;
52488;SDS011;38399;52.236;104.280;2022-08-01T21:48:25;9.52;;;6.65;;
52488;SDS011;38399;52.236;104.280;2022-08-01T21:51:00;9.68;;;7.28;;
52488;SDS011;38399;52.236;104.280;2022-08-01T21:56:06;9.50;;;6.88;;
52488;SDS011;38399;52.236;104.280;2022-08-01T22:01:38;8.85;;;6.18;;
52488;SDS011;38399;52.236;104.280;2022-08-01T22:04:12;9.23;;;7.13;;
52488;SDS011;38399;52.236;104.280;2022-08-01T22:06:42;10.48;;;6.40;;
52488;SDS011;38399;52.236;104.280;2022-08-01T22:09:14;10.70;;;7.00;;
52488;SDS011;38399;52.236;104.280;2022-08-01T22:11:43;9.52;;;6.70;;
52488;SDS011;38399;52.236;104.280;2022-08-01T22:14:11;8.32;;;6.55;;
52488;SDS011;38399;52.236;104.280;2022-08-01T22:16:40;9.40;;;7.18;;
52488;SDS011;38399;52.236;104.280;2022-08-01T22:19:09;10.18;;;7.05;;
52488;SDS011;38399;52.236;104.280;2022-08-01T22:21:37;8.35;;;6.30;;
52488;SDS011;38399;52.236;104.280;2022-08-01T22:24:04;8.48;;;6.57;;
52488;SDS011;38399;52.236;104.280;2022-08-01T22:26:35;10.25;;;6.93;;
52488;SDS011;38399;52.236;104.280;2022-08-01T22:29:03;9.95;;;7.22;;
52488;SDS011;38399;52.236;104.280;2022-08-01T22:33:56;7.75;;;5.85;;
52488;SDS011;38399;52.236;104.280;2022-08-01T22:38:48;10.15;;;6.38;;
52488;SDS011;38399;52.236;104.280;2022-08-01T22:41:16;9.77;;;7.10;;
52488;SDS011;38399;52.236;104.280;2022-08-01T22:46:41;9.15;;;6.05;;
52488;SDS011;38399;52.236;104.280;2022-08-01T22:49:41;24.50;;;9.48;;
52488;SDS011;38399;52.236;104.280;2022-08-01T22:52:28;27.55;;;11.18;;
52488;SDS011;38399;52.236;104.280;2022-08-01T22:55:01;10.88;;;7.13;;
52488;SDS011;38399;52.236;104.280;2022-08-01T23:00:16;12.82;;;7.30;;
52488;SDS011;38399;52.236;104.280;2022-08-01T23:05:13;15.65;;;9.57;;
52488;SDS011;38399;52.236;104.280;2022-08-01T23:07:49;17.85;;;13.13;;
52488;SDS011;38399;52.236;104.280;2022-08-01T23:10:20;13.20;;;9.18;;
52488;SDS011;38399;52.236;104.280;2022-08-01T23:12:52;13.77;;;10.10;;
52488;SDS011;38399;52.236;104.280;2022-08-01T23:15:19;14.52;;;11.10;;
52488;SDS011;38399;52.236;104.280;2022-08-01T23:17:47;12.68;;;8.20;;
52488;SDS011;38399;52.236;104.280;2022-08-01T23:20:14;13.02;;;7.57;;
52488;SDS011;38399;52.236;104.280;2022-08-01T23:22:42;14.95;;;9.30;;
52488;SDS011;38399;52.236;104.280;2022-08-01T23:25:10;14.38;;;8.65;;
52488;SDS011;38399;52.236;104.280;2022-08-01T23:27:39;9.48;;;7.15;;
52488;SDS011;38399;52.236;104.280;2022-08-01T23:30:07;8.40;;;7.18;;
52488;SDS011;38399;52.236;104.280;2022-08-01T23:32:34;9.98;;;6.97;;
52488;SDS011;38399;52.236;104.280;2022-08-01T23:35:01;11.18;;;7.43;;
52488;SDS011;38399;52.236;104.280;2022-08-01T23:37:28;10.48;;;7.20;;
52488;SDS011;38399;52.236;104.280;2022-08-01T23:42:21;9.65;;;7.03;;
52488;SDS011;38399;52.236;104.280;2022-08-01T23:44:47;10.20;;;7.55;;
52488;SDS011;38399;52.236;104.280;2022-08-01T23:49:39;11.35;;;7.22;;
52488;SDS011;38399;52.236;104.280;2022-08-01T23:52:06;11.50;;;7.72;;
52488;SDS011;38399;52.236;104.280;2022-08-01T23:56:59;10.35;;;7.40;;
52488;SDS011;38399;52.236;104.280;2022-08-01T23:59:26;10.18;;;7.40;;
